Time;durP1;ratioP1;P1;durP2;ratioP2;P2;SDS_P1;SDS_P2;PMS_P1;PMS_P2;Temp;Humidity;BMP_temperature;BMP_pressure;BME280_temperature;BME280_humidity;BME280_pressure;Samples;Min_cycle;Max_cycle;Signal;HPM_P1;HPM_P2
2023/10/24 00:00:41;;;;;;;5.45;3.20;;;;;;;13.04;89.82;99820.63;6372050;27;20130;-73
2023/10/24 00:03:42;;;;;;;9.77;3.50;;;;;;;13.07;89.86;99827.41;6354308;27;20185;-73
2023/10/24 00:06:43;;;;;;;7.85;3.63;;;;;;;13.11;89.98;99828.84;6370598;27;20059;-73
2023/10/24 00:09:44;;;;;;;7.60;4.43;;;;;;;13.15;90.24;99834.69;6363657;27;20108;-73
2023/10/24 00:12:48;;;;;;;8.65;3.92;;;;;;;13.17;90.01;99836.25;6346572;28;20105;-73
2023/10/24 00:15:48;;;;;;;8.68;3.78;;;;;;;13.18;90.54;99837.94;6345143;28;20048;-73
2023/10/24 00:18:49;;;;;;;9.27;3.55;;;;;;;13.29;90.39;99829.28;6351354;28;20043;-73
2023/10/24 00:21:50;;;;;;;8.02;3.60;;;;;;;13.33;90.45;99824.66;6371459;27;20061;-72
2023/10/24 00:24:51;;;;;;;5.40;3.33;;;;;;;13.33;90.25;99827.28;6360997;28;20423;-73
2023/10/24 00:27:54;;;;;;;6.68;4.03;;;;;;;13.25;90.55;99819.94;6360409;27;20188;-73
2023/10/24 00:30:55;;;;;;;8.02;3.65;;;;;;;13.18;90.62;99809.09;6358824;27;20051;-73
2023/10/24 00:33:56;;;;;;;5.90;4.03;;;;;;;13.16;90.50;99812.78;6373093;27;20055;-73
2023/10/24 00:36:57;;;;;;;6.80;3.83;;;;;;;13.20;90.69;99809.81;6350026;28;20116;-74
2023/10/24 00:39:58;;;;;;;7.75;3.78;;;;;;;13.24;90.48;99813.03;6357251;27;20057;-73
2023/10/24 00:43:09;;;;;;;5.00;3.00;;;;;;;13.32;90.50;99812.47;6364347;27;20422;-73
2023/10/24 00:46:11;;;;;;;8.05;3.88;;;;;;;13.29;91.05;99805.69;6376674;27;20055;-72
2023/10/24 00:49:15;;;;;;;9.95;3.53;;;;;;;13.39;90.68;99819.78;6373978;27;20057;-73
2023/10/24 00:52:18;;;;;;;6.28;3.53;;;;;;;13.36;91.09;99803.44;6376662;27;20054;-73
2023/10/24 00:55:22;;;;;;;21.33;4.03;;;;;;;13.39;91.57;99801.44;6369802;27;20392;-73
2023/10/24 00:58:23;;;;;;;7.82;4.05;;;;;;;13.42;91.66;99802.97;6359233;27;20047;-73
2023/10/24 01:01:24;;;;;;;5.82;3.78;;;;;;;13.43;91.25;99800.22;6364164;27;20082;-73
2023/10/24 01:04:29;;;;;;;5.40;3.35;;;;;;;13.45;91.62;99800.94;6363107;27;20092;-74
2023/10/24 01:07:32;;;;;;;6.32;3.53;;;;;;;13.47;92.15;99791.19;6360238;27;20051;-73
2023/10/24 01:10:32;;;;;;;11.02;3.97;;;;;;;13.56;91.75;99786.19;6349487;28;20134;-73
2023/10/24 01:13:34;;;;;;;6.53;3.85;;;;;;;13.55;91.67;99782.72;6350482;28;20062;-72
2023/10/24 01:16:45;;;;;;;8.88;3.85;;;;;;;13.54;91.30;99782.84;6349130;27;20054;-73
2023/10/24 01:19:46;;;;;;;5.68;3.58;;;;;;;13.48;91.79;99778.91;6348957;28;20047;-73
2023/10/24 01:22:47;;;;;;;6.90;3.60;;;;;;;13.47;91.49;99785.13;6348858;28;20559;-73
2023/10/24 01:25:49;;;;;;;6.85;3.58;;;;;;;13.49;91.13;99778.78;6373015;27;20130;-73
2023/10/24 01:28:50;;;;;;;5.72;3.85;;;;;;;13.44;91.06;99774.84;6374211;27;20050;-72
2023/10/24 01:31:51;;;;;;;11.68;3.67;;;;;;;13.39;91.72;99769.16;6374347;27;20047;-73
2023/10/24 01:34:52;;;;;;;7.05;3.75;;;;;;;13.34;91.60;99772.09;6354943;27;20047;-71
2023/10/24 01:37:53;;;;;;;7.78;3.42;;;;;;;13.35;91.82;99773.78;6348597;28;20050;-73
2023/10/24 01:40:54;;;;;;;13.10;3.55;;;;;;;13.36;91.91;99777.22;6347864;28;20126;-73
2023/10/24 01:43:55;;;;;;;6.00;3.10;;;;;;;13.39;91.74;99785.69;6348746;28;20051;-73
2023/10/24 01:46:58;;;;;;;5.33;3.20;;;;;;;13.42;91.29;99776.75;6353221;27;20100;-73
2023/10/24 01:50:00;;;;;;;7.65;3.45;;;;;;;13.41;92.16;99775.94;6359162;27;20299;-73
2023/10/24 01:53:03;;;;;;;7.82;3.22;;;;;;;13.47;92.14;99769.38;6373920;27;20051;-73
2023/10/24 01:56:06;;;;;;;10.45;3.30;;;;;;;13.56;92.31;99767.84;6374872;27;20055;-73
2023/10/24 01:59:07;;;;;;;5.07;3.10;;;;;;;13.62;92.48;99769.97;6374717;27;20570;-73
2023/10/24 02:02:09;;;;;;;4.80;3.17;;;;;;;13.70;93.35;99773.66;6373362;27;20143;-73
2023/10/24 02:05:12;;;;;;;5.53;3.30;;;;;;;13.78;92.89;99785.34;6360729;27;20127;-73
2023/10/24 02:08:12;;;;;;;5.82;3.50;;;;;;;13.86;93.62;99782.97;6348958;28;20109;-73
2023/10/24 02:11:13;;;;;;;7.53;3.00;;;;;;;13.91;92.88;99791.28;6347865;28;20381;-73
2023/10/24 02:14:14;;;;;;;8.07;3.00;;;;;;;13.98;93.29;99805.59;6348827;28;20558;-73
2023/10/24 02:17:15;;;;;;;13.02;3.58;;;;;;;14.05;93.00;99806.75;6347818;28;20048;-73
2023/10/24 02:20:16;;;;;;;7.93;3.47;;;;;;;14.18;93.14;99816.28;6348820;28;20511;-73
2023/10/24 02:23:17;;;;;;;5.43;3.38;;;;;;;14.25;92.76;99812.22;6347547;28;20054;-72
2023/10/24 02:26:20;;;;;;;5.88;3.13;;;;;;;14.38;92.88;99809.44;6347687;28;20047;-73
2023/10/24 02:29:21;;;;;;;8.43;3.03;;;;;;;14.39;92.27;99790.94;6348462;27;20043;-73
2023/10/24 02:32:22;;;;;;;4.22;2.70;;;;;;;14.42;92.28;99793.31;6348587;28;20090;-74
2023/10/24 02:35:22;;;;;;;5.22;2.75;;;;;;;14.40;91.80;99776.84;6347108;28;20066;-73
2023/10/24 02:38:23;;;;;;;4.38;2.90;;;;;;;14.55;92.12;99787.06;6348489;28;20074;-74
2023/10/24 02:41:25;;;;;;;5.88;2.83;;;;;;;14.61;91.42;99789.22;6348061;28;20060;-74
2023/10/24 02:44:26;;;;;;;4.80;2.77;;;;;;;14.60;91.62;99782.28;6348487;28;20047;-73
2023/10/24 02:47:27;;;;;;;6.57;2.55;;;;;;;14.63;91.34;99787.28;6346846;28;20053;-73
2023/10/24 02:50:27;;;;;;;4.63;2.70;;;;;;;14.61;91.60;99786.59;6351220;27;20059;-74
2023/10/24 02:53:29;;;;;;;7.15;2.90;;;;;;;14.70;91.08;99781.44;6364681;27;20897;-73
2023/10/24 02:56:30;;;;;;;4.22;2.55;;;;;;;14.70;90.73;99775.31;6358487;27;20047;-73
2023/10/24 02:59:31;;;;;;;6.50;2.53;;;;;;;14.87;89.82;99787.91;6372125;27;20046;-73
2023/10/24 03:02:32;;;;;;;5.22;2.70;;;;;;;14.95;89.89;99787.25;6348206;27;20051;-73
2023/10/24 03:05:33;;;;;;;7.05;2.75;;;;;;;14.95;89.56;99783.78;6346466;28;20082;-73
2023/10/24 03:08:34;;;;;;;4.75;2.35;;;;;;;14.95;89.25;99781.16;6372718;27;20043;-73
2023/10/24 03:11:35;;;;;;;5.70;3.40;;;;;;;15.00;89.47;99760.59;6373187;27;20047;-73
2023/10/24 03:14:36;;;;;;;6.40;3.10;;;;;;;15.08;88.77;99759.00;6357621;27;20051;-74
2023/10/24 03:17:37;;;;;;;4.50;2.58;;;;;;;15.11;89.75;99753.50;6370319;27;20054;-73
2023/10/24 03:20:41;;;;;;;6.43;2.97;;;;;;;15.08;90.26;99753.72;6347253;28;20052;-73
2023/10/24 03:23:44;;;;;;;4.60;3.10;;;;;;;15.01;90.83;99773.63;6347298;28;20043;-74
2023/10/24 03:26:45;;;;;;;6.03;2.80;;;;;;;15.14;90.28;99781.28;6365458;27;20054;-73
2023/10/24 03:29:46;;;;;;;4.78;2.50;;;;;;;15.11;90.12;99787.66;6372486;27;20039;-73
2023/10/24 03:32:52;;;;;;;6.07;3.03;;;;;;;15.16;90.55;99778.53;6369110;27;20043;-73
2023/10/24 03:35:54;;;;;;;14.93;3.10;;;;;;;15.11;90.57;99782.38;6359638;27;20502;-73
2023/10/24 03:38:55;;;;;;;3.50;2.33;;;;;;;15.13;90.38;99784.88;6358152;27;20058;-72
2023/10/24 03:41:56;;;;;;;5.05;2.90;;;;;;;15.18;90.11;99787.13;6372323;27;20054;-73
2023/10/24 03:44:56;;;;;;;7.20;2.55;;;;;;;15.19;89.84;99786.97;6358817;27;20051;-73
2023/10/24 03:47:57;;;;;;;5.93;2.58;;;;;;;15.20;89.13;99778.16;6345385;28;20121;-73
2023/10/24 03:51:01;;;;;;;5.68;2.40;;;;;;;15.20;88.92;99767.63;6346820;28;20415;-73
2023/10/24 03:54:03;;;;;;;4.50;2.50;;;;;;;15.28;88.90;99759.09;6345412;28;20453;-73
2023/10/24 03:57:04;;;;;;;4.78;2.65;;;;;;;15.27;89.21;99742.47;6358017;27;20090;-73
2023/10/24 04:00:10;;;;;;;12.57;2.47;;;;;;;15.22;88.94;99726.28;6368645;27;20047;-73
2023/10/24 04:03:11;;;;;;;6.43;2.55;;;;;;;15.26;89.39;99716.34;6350810;27;20114;-73
2023/10/24 04:06:14;;;;;;;4.20;2.58;;;;;;;15.29;89.55;99708.19;6357167;27;20051;-73
2023/10/24 04:09:16;;;;;;;4.20;2.38;;;;;;;15.22;89.04;99704.44;6362191;27;20111;-73
2023/10/24 04:12:17;;;;;;;6.93;2.67;;;;;;;15.19;89.01;99702.06;6348219;28;20047;-72
2023/10/24 04:15:20;;;;;;;3.58;2.05;;;;;;;15.25;89.04;99697.09;6365946;28;20047;-73
2023/10/24 04:18:26;;;;;;;9.30;2.72;;;;;;;15.31;88.74;99696.56;6370649;28;20482;-73
2023/10/24 04:21:27;;;;;;;6.00;2.60;;;;;;;15.31;88.53;99690.50;6366147;27;20096;-72
2023/10/24 04:24:28;;;;;;;6.53;2.33;;;;;;;15.34;88.57;99698.13;6353870;27;20047;-72
2023/10/24 04:27:28;;;;;;;3.75;2.28;;;;;;;15.35;88.25;99684.00;6355103;27;20384;-72
2023/10/24 04:30:29;;;;;;;3.88;2.40;;;;;;;15.36;88.00;99683.06;6360407;27;20084;-73
2023/10/24 04:33:33;;;;;;;3.03;2.20;;;;;;;15.38;87.80;99702.16;6361542;28;20051;-73
2023/10/24 04:36:34;;;;;;;4.55;2.20;;;;;;;15.45;87.68;99691.94;6348032;28;20050;-72
2023/10/24 04:39:35;;;;;;;5.72;2.50;;;;;;;15.34;88.03;99695.50;6362788;28;20047;-72
2023/10/24 04:42:38;;;;;;;4.20;2.15;;;;;;;15.29;88.26;99690.63;6360589;27;20047;-72
2023/10/24 04:45:39;;;;;;;4.63;2.10;;;;;;;15.41;87.84;99693.97;6347279;28;20055;-72
2023/10/24 04:48:40;;;;;;;4.53;2.10;;;;;;;15.34;87.69;99692.00;6352539;28;20047;-73
2023/10/24 04:51:40;;;;;;;3.70;2.28;;;;;;;15.48;87.00;99696.91;6353748;28;20044;-72
2023/10/24 04:54:41;;;;;;;5.13;2.40;;;;;;;15.46;87.08;99702.31;6352596;28;20482;-72
2023/10/24 04:57:44;;;;;;;4.38;2.50;;;;;;;15.35;87.37;99705.03;6355736;27;20126;-73
2023/10/24 05:00:50;;;;;;;5.78;2.30;;;;;;;15.42;86.95;99700.06;6369977;28;20058;-73
2023/10/24 05:03:53;;;;;;;3.80;2.38;;;;;;;15.42;86.72;99695.66;6369069;27;20065;-73
2023/10/24 05:06:56;;;;;;;4.80;2.30;;;;;;;15.40;86.60;99696.75;6369599;28;20418;-72
2023/10/24 05:09:57;;;;;;;3.63;2.20;;;;;;;15.37;86.75;99692.59;6369894;28;20050;-73
2023/10/24 05:13:00;;;;;;;2.58;1.92;;;;;;;15.35;86.51;99696.31;6369829;28;20047;-73
2023/10/24 05:16:02;;;;;;;3.80;2.30;;;;;;;15.23;87.10;99698.19;6370774;27;20403;-73
2023/10/24 05:19:04;;;;;;;3.00;1.98;;;;;;;15.27;86.95;99705.69;6374508;27;20050;-73
2023/10/24 05:22:05;;;;;;;6.32;2.38;;;;;;;15.21;88.06;99700.94;6375332;27;20057;-73
2023/10/24 05:25:06;;;;;;;4.65;2.30;;;;;;;15.29;87.59;99703.75;6374271;27;20069;-73
2023/10/24 05:28:07;;;;;;;3.80;2.27;;;;;;;15.40;86.66;99702.84;6375341;27;20047;-73
2023/10/24 05:31:09;;;;;;;6.13;2.15;;;;;;;15.47;86.31;99711.84;6374273;27;20092;-72
2023/10/24 05:34:10;;;;;;;4.72;2.55;;;;;;;15.58;85.94;99713.53;6374011;27;20059;-73
2023/10/24 05:37:10;;;;;;;5.65;2.28;;;;;;;15.50;86.48;99713.38;6374232;27;20093;-73
2023/10/24 05:40:11;;;;;;;6.30;2.63;;;;;;;15.60;85.87;99716.88;6374100;27;20077;-73
2023/10/24 05:43:12;;;;;;;3.65;2.30;;;;;;;15.63;85.72;99723.69;6373767;27;20043;-73
2023/10/24 05:46:13;;;;;;;5.53;2.00;;;;;;;15.62;85.42;99714.94;6373948;27;20537;-73
2023/10/24 05:49:14;;;;;;;4.47;2.05;;;;;;;15.66;85.07;99721.59;6374905;27;20047;-73
2023/10/24 05:52:15;;;;;;;2.78;1.95;;;;;;;15.65;85.01;99719.94;6373785;27;20051;-73
2023/10/24 05:55:19;;;;;;;4.43;2.13;;;;;;;15.67;85.53;99731.16;6374839;27;20102;-72
2023/10/24 05:58:21;;;;;;;5.38;1.98;;;;;;;15.69;84.96;99723.16;6373743;27;20483;-73
2023/10/24 06:01:24;;;;;;;6.78;2.20;;;;;;;15.65;84.92;99730.47;6373458;27;20063;-72
2023/10/24 06:04:25;;;;;;;3.85;1.90;;;;;;;15.74;84.74;99725.41;6374810;27;20051;-73
2023/10/24 06:07:26;;;;;;;10.88;2.25;;;;;;;15.79;84.81;99715.28;6374241;27;20103;-73
2023/10/24 06:10:27;;;;;;;4.30;2.17;;;;;;;15.71;85.44;99715.94;6373373;27;20410;-73
2023/10/24 06:13:29;;;;;;;7.00;1.85;;;;;;;15.67;85.08;99717.19;6373247;27;20479;-72
2023/10/24 06:16:32;;;;;;;4.50;2.00;;;;;;;15.75;85.15;99717.38;6373112;27;20047;-73
2023/10/24 06:19:39;;;;;;;5.03;2.22;;;;;;;15.90;84.53;99709.94;6374466;27;20054;-72
2023/10/24 06:22:40;;;;;;;5.82;2.45;;;;;;;15.89;83.70;99703.81;6374565;27;20475;-73
2023/10/24 06:25:42;;;;;;;6.78;2.40;;;;;;;15.98;84.20;99711.84;6374281;27;20047;-72
2023/10/24 06:28:43;;;;;;;6.22;2.30;;;;;;;15.89;84.43;99703.81;6373636;27;20075;-73
2023/10/24 06:31:44;;;;;;;8.48;2.10;;;;;;;15.96;84.46;99719.91;6372917;27;20049;-73
2023/10/24 06:34:44;;;;;;;7.65;2.30;;;;;;;16.03;83.92;99721.00;6372717;27;20055;-73
2023/10/24 06:37:48;;;;;;;5.70;2.03;;;;;;;16.05;83.52;99705.91;6374288;27;20078;-73
2023/10/24 06:40:50;;;;;;;4.22;1.98;;;;;;;16.12;83.97;99695.66;6372857;27;20057;-72
2023/10/24 06:43:51;;;;;;;12.95;2.53;;;;;;;16.20;83.76;99689.72;6372711;27;20087;-73
2023/10/24 06:46:52;;;;;;;3.88;2.40;;;;;;;16.09;84.07;99685.44;6372545;27;20055;-73
2023/10/24 06:49:53;;;;;;;2.83;2.35;;;;;;;16.41;82.70;99692.19;6373399;27;20084;-72
2023/10/24 06:52:54;;;;;;;4.55;2.45;;;;;;;16.23;83.31;99686.81;6372260;27;20099;-73
2023/10/24 06:56:00;;;;;;;3.40;2.10;;;;;;;16.37;83.14;99683.75;6373282;27;20042;-73
2023/10/24 06:59:01;;;;;;;4.40;2.30;;;;;;;16.42;82.91;99689.44;6372266;27;20043;-73
2023/10/24 07:02:04;;;;;;;8.02;2.80;;;;;;;16.44;83.12;99684.03;6373160;27;20096;-72
2023/10/24 07:05:05;;;;;;;4.90;2.72;;;;;;;16.46;83.30;99672.38;6372089;27;20490;-74
2023/10/24 07:08:06;;;;;;;8.07;2.70;;;;;;;16.48;83.37;99674.88;6371632;27;20047;-74
2023/10/24 07:11:07;;;;;;;3.67;2.40;;;;;;;16.48;83.92;99677.50;6371973;27;20055;-72
2023/10/24 07:14:08;;;;;;;4.05;2.30;;;;;;;16.63;83.31;99696.34;6371777;27;20051;-73
2023/10/24 07:17:09;;;;;;;5.20;2.83;;;;;;;16.48;83.40;99693.31;6373113;27;20050;-73
2023/10/24 07:20:10;;;;;;;4.38;3.08;;;;;;;16.72;83.55;99690.22;6371726;27;20050;-73
2023/10/24 07:23:11;;;;;;;5.17;2.37;;;;;;;16.80;82.84;99685.09;6371414;27;20051;-72
2023/10/24 07:26:12;;;;;;;5.63;2.90;;;;;;;16.85;82.29;99688.13;6371613;27;20793;-73
2023/10/24 07:29:15;;;;;;;6.55;2.50;;;;;;;16.96;82.29;99684.50;6372463;27;20054;-73
2023/10/24 07:32:16;;;;;;;13.90;3.20;;;;;;;16.90;82.44;99679.78;6371269;27;20080;-72
2023/10/24 07:35:17;;;;;;;6.15;2.85;;;;;;;16.96;81.80;99684.50;6372997;27;20094;-73
2023/10/24 07:38:19;;;;;;;4.53;2.78;;;;;;;17.06;81.68;99677.38;6371191;27;20047;-72
2023/10/24 07:41:19;;;;;;;4.22;2.45;;;;;;;17.16;80.84;99674.72;6370567;27;20130;-73
2023/10/24 07:44:20;;;;;;;6.47;2.85;;;;;;;17.28;81.18;99681.47;6372454;27;20107;-73
2023/10/24 07:47:22;;;;;;;5.85;2.80;;;;;;;17.29;80.56;99688.38;6371239;27;20047;-73
2023/10/24 07:50:28;;;;;;;6.57;2.45;;;;;;;17.63;79.87;99692.25;6372197;27;20078;-73
2023/10/24 07:53:29;;;;;;;6.55;2.97;;;;;;;17.91;78.38;99688.63;6372176;27;20042;-73
2023/10/24 07:56:30;;;;;;;9.38;2.70;;;;;;;18.15;77.05;99681.91;6370908;27;20414;-73
2023/10/24 07:59:30;;;;;;;8.60;3.30;;;;;;;18.55;76.16;99677.13;6371035;27;20104;-73
2023/10/24 08:02:34;;;;;;;5.25;2.75;;;;;;;18.64;74.54;99670.91;6371926;27;20077;-72
2023/10/24 08:05:34;;;;;;;7.57;3.22;;;;;;;18.59;74.38;99675.81;6370714;27;20051;-73
2023/10/24 08:08:36;;;;;;;6.28;3.08;;;;;;;18.90;73.47;99666.50;6371602;27;20047;-73
2023/10/24 08:11:38;;;;;;;7.43;2.85;;;;;;;18.89;72.76;99670.09;6372073;27;20051;-73
2023/10/24 08:14:39;;;;;;;7.30;2.90;;;;;;;18.81;72.98;99664.78;6370518;28;20047;-73
2023/10/24 08:17:39;;;;;;;9.23;2.80;;;;;;;18.52;72.97;99659.78;6371952;27;20134;-73
2023/10/24 08:20:43;;;;;;;9.52;2.88;;;;;;;18.42;72.87;99659.84;6370636;28;20047;-72
2023/10/24 08:23:44;;;;;;;7.93;3.08;;;;;;;18.52;73.57;99652.66;6370350;27;20054;-72
2023/10/24 08:26:45;;;;;;;6.90;2.83;;;;;;;18.49;73.35;99646.84;6371735;27;20051;-73
2023/10/24 08:29:46;;;;;;;7.65;2.90;;;;;;;18.73;72.57;99635.63;6371541;27;20051;-74
2023/10/24 08:32:48;;;;;;;7.40;2.88;;;;;;;18.87;71.92;99643.00;6370353;28;20130;-73
2023/10/24 08:35:49;;;;;;;6.70;2.55;;;;;;;18.94;72.63;99643.19;6370425;28;20166;-73
2023/10/24 08:38:50;;;;;;;12.80;2.47;;;;;;;19.20;71.58;99637.88;6370596;28;20049;-73
2023/10/24 08:41:53;;;;;;;5.25;2.67;;;;;;;19.40;70.50;99642.91;6370394;28;20054;-72
2023/10/24 08:44:56;;;;;;;6.07;2.40;;;;;;;19.76;68.86;99646.16;6371420;27;20411;-73
2023/10/24 08:48:03;;;;;;;5.10;2.78;;;;;;;20.05;67.57;99652.81;6370034;27;20406;-73
2023/10/24 08:51:03;;;;;;;7.82;2.45;;;;;;;19.84;69.36;99643.53;6372997;27;20048;-73
2023/10/24 08:54:07;;;;;;;6.10;2.43;;;;;;;19.84;67.39;99648.00;6375148;27;20043;-73
2023/10/24 08:57:08;;;;;;;8.93;2.55;;;;;;;19.88;67.35;99650.16;6376472;27;20055;-74
2023/10/24 09:00:11;;;;;;;2.90;2.07;;;;;;;19.70;67.34;99644.13;6375295;27;20039;-73
2023/10/24 09:03:18;;;;;;;3.67;2.47;;;;;;;20.05;67.52;99634.28;6376171;27;20057;-74
2023/10/24 09:06:22;;;;;;;6.70;2.55;;;;;;;19.87;67.02;99634.41;6375877;27;20100;-73
2023/10/24 09:09:25;;;;;;;4.10;1.90;;;;;;;19.98;66.20;99638.59;6374808;27;20475;-72
2023/10/24 09:12:30;;;;;;;6.22;2.70;;;;;;;19.97;66.90;99634.28;6375082;27;20084;-73
2023/10/24 09:15:34;;;;;;;6.38;2.60;;;;;;;20.04;66.75;99638.75;6375837;27;20488;-73
2023/10/24 09:18:36;;;;;;;8.95;2.33;;;;;;;19.90;65.98;99640.22;6376112;27;20043;-73
2023/10/24 09:21:40;;;;;;;5.38;2.38;;;;;;;19.86;65.71;99638.06;6374774;27;20521;-73
2023/10/24 09:24:46;;;;;;;8.10;2.30;;;;;;;19.93;66.17;99628.47;6375878;27;20054;-73
2023/10/24 09:27:49;;;;;;;5.45;2.20;;;;;;;19.93;65.59;99621.38;6375582;27;20089;-73
2023/10/24 09:30:50;;;;;;;7.93;2.10;;;;;;;20.15;64.82;99605.81;6374304;27;20553;-73
2023/10/24 09:33:51;;;;;;;5.20;2.13;;;;;;;20.16;64.11;99618.06;6374381;27;20134;-73
2023/10/24 09:36:52;;;;;;;6.78;2.20;;;;;;;19.99;63.66;99611.91;6375374;27;20095;-73
2023/10/24 09:40:00;;;;;;;9.57;2.38;;;;;;;19.86;63.84;99615.06;6374231;27;20054;-73
2023/10/24 09:43:10;;;;;;;8.10;2.13;;;;;;;19.94;64.10;99619.53;6373935;27;20047;-73
2023/10/24 09:46:14;;;;;;;7.43;2.17;;;;;;;20.02;64.39;99597.53;6373999;27;20048;-73
2023/10/24 09:49:15;;;;;;;3.08;1.90;;;;;;;20.26;64.54;99591.38;6374059;27;20062;-73
2023/10/24 09:52:20;;;;;;;7.17;2.20;;;;;;;20.42;63.13;99587.91;6374114;27;20047;-73
2023/10/24 09:55:24;;;;;;;8.52;2.50;;;;;;;20.28;63.30;99581.44;6374856;27;20047;-74
2023/10/24 09:58:27;;;;;;;6.15;2.50;;;;;;;20.54;63.14;99582.06;6373927;27;20130;-73
2023/10/24 10:01:28;;;;;;;8.98;2.47;;;;;;;20.64;62.46;99581.91;6374832;27;20562;-74
2023/10/24 10:04:32;;;;;;;5.10;2.45;;;;;;;20.70;61.84;99569.81;6372778;27;20051;-73
2023/10/24 10:07:35;;;;;;;11.27;2.60;;;;;;;20.70;61.98;99565.31;6373223;27;20051;-72
2023/10/24 10:10:37;;;;;;;9.55;2.45;;;;;;;20.65;61.80;99561.53;6373508;27;20096;-73
2023/10/24 10:13:46;;;;;;;5.57;2.35;;;;;;;20.82;61.46;99551.72;6373248;27;20443;-73
2023/10/24 10:16:52;;;;;;;7.00;1.85;;;;;;;20.92;61.15;99557.63;6374697;27;20043;-72
2023/10/24 10:20:31;;;;;;;4.53;2.22;;;;;;;21.03;59.79;99557.25;6373174;27;20549;-73
2023/10/24 10:24:02;;;;;;;6.40;2.08;;;;;;;20.96;59.81;99551.00;6373296;27;20055;-73
2023/10/24 10:27:09;;;;;;;4.45;2.10;;;;;;;20.99;60.24;99552.47;6373919;27;20491;-73
2023/10/24 10:30:10;;;;;;;3.97;2.05;;;;;;;21.07;60.01;99555.88;6372854;27;20111;-72
2023/10/24 10:33:15;;;;;;;7.90;2.53;;;;;;;21.21;60.11;99535.75;6373081;27;20096;-72
2023/10/24 10:36:17;;;;;;;5.60;2.08;;;;;;;21.28;59.03;99531.38;6374085;27;20047;-72
2023/10/24 10:39:18;;;;;;;5.82;2.13;;;;;;;21.16;59.29;99531.97;6372717;27;20406;-72
2023/10/24 10:42:46;;;;;;;8.33;2.53;;;;;;;21.33;58.44;99537.00;6372645;27;20054;-72
2023/10/24 10:45:50;;;;;;;3.78;1.90;;;;;;;21.48;58.84;99529.13;6372661;27;20051;-73
2023/10/24 10:48:51;;;;;;;4.97;1.98;;;;;;;21.42;58.93;99529.00;6373452;27;20503;-73
2023/10/24 10:51:58;;;;;;;5.70;1.80;;;;;;;21.47;58.63;99526.66;6373880;27;20078;-72
2023/10/24 10:55:47;;;;;;;5.13;1.65;;;;;;;21.80;57.27;99508.63;6373345;27;20439;-73
2023/10/24 10:59:06;;;;;;;2.70;1.33;;;;;;;22.19;57.70;99501.47;6363382;27;20047;-72
2023/10/24 11:02:50;;;;;;;3.25;1.40;;;;;;;22.20;57.70;99503.13;6372002;27;20047;-72
2023/10/24 11:05:52;;;;;;;2.65;1.30;;;;;;;22.03;57.18;99482.03;6351321;27;20047;-72
2023/10/24 11:09:13;;;;;;;4.35;1.35;;;;;;;21.48;57.57;99494.63;6373226;27;20475;-74
2023/10/24 11:12:29;;;;;;;4.97;1.88;;;;;;;21.43;57.52;99486.38;6373002;27;20050;-72
2023/10/24 11:15:30;;;;;;;4.40;1.90;;;;;;;21.48;57.86;99475.25;6371894;27;20043;-72
2023/10/24 11:18:33;;;;;;;5.53;1.57;;;;;;;21.66;58.18;99483.72;6371652;27;20047;-72
2023/10/24 11:21:34;;;;;;;6.07;2.10;;;;;;;21.92;57.65;99488.59;6371739;27;20495;-72
2023/10/24 11:24:37;;;;;;;10.57;1.60;;;;;;;21.73;57.64;99479.31;6372766;27;20100;-72
2023/10/24 11:27:39;;;;;;;2.80;1.48;;;;;;;21.97;57.96;99468.66;6371382;27;20415;-72
2023/10/24 11:30:42;;;;;;;4.97;1.65;;;;;;;22.05;56.81;99465.91;6371311;27;20050;-72
2023/10/24 11:33:44;;;;;;;4.32;1.95;;;;;;;22.18;56.62;99481.22;6371522;27;20047;-72
2023/10/24 11:36:46;;;;;;;9.20;1.92;;;;;;;21.98;56.22;99484.41;6371235;27;20054;-72
2023/10/24 11:39:47;;;;;;;6.22;1.63;;;;;;;22.00;55.80;99478.91;6371515;27;20054;-73
2023/10/24 11:42:50;;;;;;;9.93;1.27;;;;;;;21.83;56.16;99471.13;6371221;27;20126;-72
2023/10/24 11:45:50;;;;;;;3.30;1.65;;;;;;;21.68;56.62;99463.13;6370892;27;20486;-72
2023/10/24 11:48:51;;;;;;;9.87;2.17;;;;;;;21.93;56.37;99461.06;6371067;27;20051;-72
2023/10/24 11:51:52;;;;;;;6.37;1.57;;;;;;;21.86;56.13;99468.09;6371026;27;20043;-72
2023/10/24 11:54:53;;;;;;;7.67;1.70;;;;;;;21.75;56.26;99454.44;6367203;27;20074;-71
2023/10/24 11:57:57;;;;;;;4.23;1.50;;;;;;;21.87;56.50;99455.66;6361428;27;20043;-72
2023/10/24 12:01:00;;;;;;;9.27;1.80;;;;;;;21.99;56.30;99443.56;6357650;27;20043;-73
2023/10/24 12:04:04;;;;;;;8.43;1.83;;;;;;;21.79;55.85;99447.75;6356055;27;20043;-73
2023/10/24 12:07:09;;;;;;;6.25;2.10;;;;;;;21.86;55.79;99462.78;6359761;27;20055;-73
2023/10/24 12:10:13;;;;;;;8.18;2.60;;;;;;;21.84;56.57;99462.13;6356733;27;20460;-72
2023/10/24 12:13:14;;;;;;;13.07;3.13;;;;;;;22.01;56.08;99446.88;6352568;27;20048;-72
2023/10/24 12:16:15;;;;;;;7.77;2.33;;;;;;;22.07;55.78;99429.34;6370792;27;20043;-73
2023/10/24 12:19:15;;;;;;;9.83;2.50;;;;;;;22.36;55.02;99438.34;6371827;27;20055;-72
2023/10/24 12:22:16;;;;;;;11.13;2.37;;;;;;;23.12;53.57;99437.00;6370782;28;20054;-72
2023/10/24 12:25:18;;;;;;;14.73;2.47;;;;;;;23.54;52.33;99432.66;6355867;27;20043;-72
2023/10/24 12:28:19;;;;;;;5.50;1.85;;;;;;;23.38;51.25;99430.28;6355382;27;20048;-73
2023/10/24 12:31:20;;;;;;;3.77;2.00;;;;;;;23.28;51.88;99430.59;6363659;27;20053;-72
2023/10/24 12:34:21;;;;;;;6.83;2.00;;;;;;;23.04;52.03;99433.63;6360813;27;20402;-73
2023/10/24 12:37:22;;;;;;;5.38;1.95;;;;;;;22.91;53.08;99431.63;6350034;28;20488;-73
2023/10/24 12:40:23;;;;;;;11.52;2.65;;;;;;;22.60;52.85;99423.94;6351236;28;20502;-72
2023/10/24 12:43:24;;;;;;;9.57;2.50;;;;;;;22.56;53.06;99423.47;6360575;27;20440;-72
2023/10/24 12:46:25;;;;;;;15.50;2.25;;;;;;;22.71;53.28;99432.25;6361300;27;20405;-73
2023/10/24 12:49:26;;;;;;;12.87;3.63;;;;;;;22.71;53.33;99426.09;6376766;27;20043;-73
2023/10/24 12:52:27;;;;;;;6.63;2.83;;;;;;;22.92;52.69;99415.50;6375460;27;20703;-73
2023/10/24 12:55:28;;;;;;;14.47;3.30;;;;;;;23.24;52.40;99416.03;6374545;27;20047;-73
2023/10/24 12:58:29;;;;;;;7.43;2.33;;;;;;;23.04;52.37;99407.88;6375649;27;20459;-72
2023/10/24 13:01:30;;;;;;;12.57;2.60;;;;;;;22.89;52.76;99421.19;6375103;27;20084;-72
2023/10/24 13:04:31;;;;;;;23.73;3.92;;;;;;;22.78;53.63;99427.00;6375025;27;20051;-72
2023/10/24 13:07:32;;;;;;;9.27;3.03;;;;;;;22.47;53.80;99422.78;6373603;27;20112;-72
2023/10/24 13:10:33;;;;;;;16.60;2.93;;;;;;;22.39;54.16;99422.88;6360670;27;20043;-72
2023/10/24 13:13:34;;;;;;;12.47;2.20;;;;;;;22.46;54.48;99420.28;6369238;27;20303;-72
2023/10/24 13:16:37;;;;;;;8.20;2.03;;;;;;;22.39;54.05;99412.25;6370632;27;20051;-72
2023/10/24 13:19:40;;;;;;;3.83;2.08;;;;;;;22.43;53.95;99394.09;6374989;27;20270;-72
2023/10/24 13:22:41;;;;;;;12.90;2.00;;;;;;;22.45;53.93;99374.28;6375977;27;20057;-72
2023/10/24 13:25:42;;;;;;;10.23;3.78;;;;;;;22.33;53.77;99381.91;6361292;27;20047;-72
2023/10/24 13:28:43;;;;;;;10.50;3.70;;;;;;;22.34;53.85;99385.38;6350172;28;20552;-72
2023/10/24 13:31:45;;;;;;;8.45;2.28;;;;;;;22.40;54.27;99379.31;6350130;27;20047;-73
2023/10/24 13:34:46;;;;;;;7.38;3.15;;;;;;;22.50;54.87;99365.75;6349040;28;20044;-73
2023/10/24 13:37:49;;;;;;;4.10;2.20;;;;;;;22.34;54.06;99364.13;6347215;27;20054;-73
2023/10/24 13:40:50;;;;;;;7.05;2.50;;;;;;;22.50;54.60;99358.59;6353603;27;20076;-73
2023/10/24 13:43:57;;;;;;;11.98;2.03;;;;;;;22.47;54.51;99350.19;6356237;27;20445;-72
2023/10/24 13:46:58;;;;;;;9.27;2.30;;;;;;;22.35;54.63;99355.16;6357138;27;20051;-72
2023/10/24 13:50:02;;;;;;;;;;;;;;;22.42;54.99;99353.38;6362601;27;20043;-72
2023/10/24 13:53:05;;;;;;;7.22;1.73;;;;;;;22.38;54.95;99359.25;6351267;27;19969;-72
2023/10/24 13:56:06;;;;;;;8.65;1.90;;;;;;;22.27;55.22;99361.41;6358391;27;20159;-72
2023/10/24 13:59:07;;;;;;;9.20;2.93;;;;;;;22.18;54.88;99340.41;6361688;27;20504;-72
2023/10/24 14:02:07;;;;;;;10.53;2.17;;;;;;;22.26;55.21;99341.16;6367622;27;20047;-72
2023/10/24 14:05:09;;;;;;;25.53;3.23;;;;;;;22.10;54.88;99357.28;6360659;27;20109;-72
2023/10/24 14:08:09;;;;;;;9.85;2.03;;;;;;;22.08;54.95;99349.50;6357576;27;20058;-72
2023/10/24 14:11:10;;;;;;;12.57;1.70;;;;;;;22.16;55.67;99345.91;6359748;27;20083;-72
2023/10/24 14:14:11;;;;;;;11.77;3.00;;;;;;;22.20;56.12;99347.19;6355807;27;20051;-72
2023/10/24 14:17:12;;;;;;;10.83;2.10;;;;;;;22.15;56.24;99362.84;6364703;27;20047;-73